sensor_id;sensor_type;location;lat;lon;timestamp;temperature;humidity
33994;DHT22;20673;48.980;8.138;2023-06-14T00:02:00;13.60;99.90
33994;DHT22;20673;48.980;8.138;2023-06-14T00:04:26;13.60;99.90
33994;DHT22;20673;48.980;8.138;2023-06-14T00:06:53;13.70;99.90
33994;DHT22;20673;48.980;8.138;2023-06-14T00:09:21;13.70;99.90
33994;DHT22;20673;48.980;8.138;2023-06-14T00:11:47;13.60;99.90
33994;DHT22;20673;48.980;8.138;2023-06-14T00:14:13;13.50;99.90
33994;DHT22;20673;48.980;8.138;2023-06-14T00:16:40;13.40;99.90
33994;DHT22;20673;48.980;8.138;2023-06-14T00:19:10;13.40;99.90
33994;DHT22;20673;48.980;8.138;2023-06-14T00:21:37;13.30;99.90
33994;DHT22;20673;48.980;8.138;2023-06-14T00:24:04;13.30;99.90
33994;DHT22;20673;48.980;8.138;2023-06-14T00:26:30;13.10;99.90
33994;DHT22;20673;48.980;8.138;2023-06-14T00:28:56;13.20;99.90
33994;DHT22;20673;48.980;8.138;2023-06-14T00:31:23;13.20;99.90
33994;DHT22;20673;48.980;8.138;2023-06-14T00:33:49;13.30;99.90
33994;DHT22;20673;48.980;8.138;2023-06-14T00:36:15;13.20;99.90
33994;DHT22;20673;48.980;8.138;2023-06-14T00:38:41;13.10;99.90
33994;DHT22;20673;48.980;8.138;2023-06-14T00:41:07;13.00;99.90
33994;DHT22;20673;48.980;8.138;2023-06-14T00:43:33;12.90;99.90
33994;DHT22;20673;48.980;8.138;2023-06-14T00:46:00;12.80;99.90
33994;DHT22;20673;48.980;8.138;2023-06-14T00:48:27;12.80;99.90
33994;DHT22;20673;48.980;8.138;2023-06-14T00:50:54;12.70;99.90
33994;DHT22;20673;48.980;8.138;2023-06-14T00:53:21;12.60;99.90
33994;DHT22;20673;48.980;8.138;2023-06-14T00:55:48;12.50;99.90
33994;DHT22;20673;48.980;8.138;2023-06-14T00:58:15;12.50;99.90
33994;DHT22;20673;48.980;8.138;2023-06-14T01:00:42;12.40;99.90
33994;DHT22;20673;48.980;8.138;2023-06-14T01:03:08;12.30;99.90
33994;DHT22;20673;48.980;8.138;2023-06-14T01:05:36;12.40;99.90
33994;DHT22;20673;48.980;8.138;2023-06-14T01:08:15;12.30;99.90
33994;DHT22;20673;48.980;8.138;2023-06-14T01:11:10;12.10;99.90
33994;DHT22;20673;48.980;8.138;2023-06-14T01:13:44;12.10;99.90
33994;DHT22;20673;48.980;8.138;2023-06-14T01:16:12;12.10;99.90
33994;DHT22;20673;48.980;8.138;2023-06-14T01:18:39;12.10;99.90
33994;DHT22;20673;48.980;8.138;2023-06-14T01:21:30;12.00;99.90
33994;DHT22;20673;48.980;8.138;2023-06-14T01:23:50;12.00;99.90
33994;DHT22;20673;48.980;8.138;2023-06-14T01:26:23;12.00;99.90
33994;DHT22;20673;48.980;8.138;2023-06-14T01:28:50;12.10;99.90
33994;DHT22;20673;48.980;8.138;2023-06-14T01:31:20;12.10;99.90
33994;DHT22;20673;48.980;8.138;2023-06-14T01:33:49;12.10;99.90
33994;DHT22;20673;48.980;8.138;2023-06-14T01:36:19;12.10;99.90
33994;DHT22;20673;48.980;8.138;2023-06-14T01:38:49;12.00;99.90
33994;DHT22;20673;48.980;8.138;2023-06-14T01:41:17;12.00;99.90
33994;DHT22;20673;48.980;8.138;2023-06-14T01:43:46;11.90;99.90
33994;DHT22;20673;48.980;8.138;2023-06-14T01:46:14;11.80;99.90
33994;DHT22;20673;48.980;8.138;2023-06-14T01:48:42;11.90;99.90
33994;DHT22;20673;48.980;8.138;2023-06-14T01:51:08;11.90;99.90
33994;DHT22;20673;48.980;8.138;2023-06-14T01:53:34;12.00;99.90
33994;DHT22;20673;48.980;8.138;2023-06-14T01:56:00;12.00;99.90
33994;DHT22;20673;48.980;8.138;2023-06-14T01:58:26;12.00;99.90
33994;DHT22;20673;48.980;8.138;2023-06-14T02:00:52;12.00;99.90
33994;DHT22;20673;48.980;8.138;2023-06-14T02:03:21;12.00;99.90
33994;DHT22;20673;48.980;8.138;2023-06-14T02:05:47;12.00;99.90
33994;DHT22;20673;48.980;8.138;2023-06-14T02:08:13;11.90;99.90
33994;DHT22;20673;48.980;8.138;2023-06-14T02:10:39;12.00;99.90
33994;DHT22;20673;48.980;8.138;2023-06-14T02:13:05;12.10;99.90
33994;DHT22;20673;48.980;8.138;2023-06-14T02:15:31;12.10;99.90
33994;DHT22;20673;48.980;8.138;2023-06-14T02:18:01;12.20;99.90
33994;DHT22;20673;48.980;8.138;2023-06-14T02:20:28;12.20;99.90
33994;DHT22;20673;48.980;8.138;2023-06-14T02:22:55;12.30;99.90
33994;DHT22;20673;48.980;8.138;2023-06-14T02:25:21;12.40;99.90
33994;DHT22;20673;48.980;8.138;2023-06-14T02:27:47;12.60;99.90
33994;DHT22;20673;48.980;8.138;2023-06-14T02:30:13;12.60;99.90
33994;DHT22;20673;48.980;8.138;2023-06-14T02:32:41;12.70;99.90
33994;DHT22;20673;48.980;8.138;2023-06-14T02:35:08;12.70;99.90
33994;DHT22;20673;48.980;8.138;2023-06-14T02:37:35;12.80;99.90
33994;DHT22;20673;48.980;8.138;2023-06-14T02:40:01;12.90;99.90
33994;DHT22;20673;48.980;8.138;2023-06-14T02:42:27;12.90;99.90
33994;DHT22;20673;48.980;8.138;2023-06-14T02:44:53;12.90;99.90
33994;DHT22;20673;48.980;8.138;2023-06-14T02:47:19;12.90;99.90
33994;DHT22;20673;48.980;8.138;2023-06-14T02:49:46;12.90;99.90
33994;DHT22;20673;48.980;8.138;2023-06-14T02:52:12;12.90;99.90
33994;DHT22;20673;48.980;8.138;2023-06-14T02:54:38;13.00;99.90
33994;DHT22;20673;48.980;8.138;2023-06-14T02:57:05;13.00;99.90
33994;DHT22;20673;48.980;8.138;2023-06-14T02:59:33;13.10;99.90
33994;DHT22;20673;48.980;8.138;2023-06-14T03:02:00;13.20;99.90
33994;DHT22;20673;48.980;8.138;2023-06-14T03:04:26;13.30;99.90
33994;DHT22;20673;48.980;8.138;2023-06-14T03:06:54;13.30;99.90
33994;DHT22;20673;48.980;8.138;2023-06-14T03:09:21;13.40;99.90
33994;DHT22;20673;48.980;8.138;2023-06-14T03:11:47;13.40;99.90
33994;DHT22;20673;48.980;8.138;2023-06-14T03:14:13;13.50;99.90
33994;DHT22;20673;48.980;8.138;2023-06-14T03:16:40;13.60;99.90
33994;DHT22;20673;48.980;8.138;2023-06-14T03:19:07;13.60;99.90
33994;DHT22;20673;48.980;8.138;2023-06-14T03:21:33;13.70;99.90
33994;DHT22;20673;48.980;8.138;2023-06-14T03:24:00;13.80;99.90
33994;DHT22;20673;48.980;8.138;2023-06-14T03:26:27;13.80;99.90
33994;DHT22;20673;48.980;8.138;2023-06-14T03:28:53;13.90;99.90
33994;DHT22;20673;48.980;8.138;2023-06-14T03:31:20;13.90;99.90
33994;DHT22;20673;48.980;8.138;2023-06-14T03:33:46;14.00;99.90
33994;DHT22;20673;48.980;8.138;2023-06-14T03:36:12;14.10;99.90
33994;DHT22;20673;48.980;8.138;2023-06-14T03:38:38;14.10;99.90
33994;DHT22;20673;48.980;8.138;2023-06-14T03:41:05;14.20;99.90
33994;DHT22;20673;48.980;8.138;2023-06-14T03:43:31;14.20;99.90
33994;DHT22;20673;48.980;8.138;2023-06-14T03:45:59;14.20;99.90
33994;DHT22;20673;48.980;8.138;2023-06-14T03:48:25;14.20;99.90
33994;DHT22;20673;48.980;8.138;2023-06-14T03:50:51;14.30;99.90
33994;DHT22;20673;48.980;8.138;2023-06-14T03:53:17;14.30;99.90
33994;DHT22;20673;48.980;8.138;2023-06-14T03:55:45;14.30;99.90
33994;DHT22;20673;48.980;8.138;2023-06-14T03:58:11;14.30;99.90
33994;DHT22;20673;48.980;8.138;2023-06-14T04:00:38;14.30;99.90
33994;DHT22;20673;48.980;8.138;2023-06-14T04:03:05;14.40;99.90
33994;DHT22;20673;48.980;8.138;2023-06-14T04:05:31;14.40;99.90
33994;DHT22;20673;48.980;8.138;2023-06-14T04:07:57;14.40;99.90
33994;DHT22;20673;48.980;8.138;2023-06-14T04:10:25;14.40;99.90
33994;DHT22;20673;48.980;8.138;2023-06-14T04:12:52;14.40;99.90
33994;DHT22;20673;48.980;8.138;2023-06-14T04:15:18;14.40;99.90
33994;DHT22;20673;48.980;8.138;2023-06-14T04:17:44;14.40;99.90
33994;DHT22;20673;48.980;8.138;2023-06-14T04:20:10;14.50;99.90
33994;DHT22;20673;48.980;8.138;2023-06-14T04:22:36;14.60;99.90
33994;DHT22;20673;48.980;8.138;2023-06-14T04:25:03;14.50;99.90
33994;DHT22;20673;48.980;8.138;2023-06-14T04:27:31;14.60;99.90
33994;DHT22;20673;48.980;8.138;2023-06-14T04:29:59;14.60;99.90
33994;DHT22;20673;48.980;8.138;2023-06-14T04:32:27;14.60;99.90
33994;DHT22;20673;48.980;8.138;2023-06-14T04:34:59;14.60;99.90
33994;DHT22;20673;48.980;8.138;2023-06-14T04:37:27;14.70;99.90
33994;DHT22;20673;48.980;8.138;2023-06-14T04:39:55;14.70;99.90
33994;DHT22;20673;48.980;8.138;2023-06-14T04:42:23;14.80;99.90
33994;DHT22;20673;48.980;8.138;2023-06-14T04:44:54;14.90;99.90
33994;DHT22;20673;48.980;8.138;2023-06-14T04:47:21;15.00;99.90
33994;DHT22;20673;48.980;8.138;2023-06-14T04:49:47;15.00;99.90
33994;DHT22;20673;48.980;8.138;2023-06-14T04:52:13;15.10;99.90
33994;DHT22;20673;48.980;8.138;2023-06-14T04:54:40;15.10;99.90
33994;DHT22;20673;48.980;8.138;2023-06-14T04:57:08;15.30;99.90
33994;DHT22;20673;48.980;8.138;2023-06-14T04:59:41;15.30;99.90
33994;DHT22;20673;48.980;8.138;2023-06-14T05:02:10;15.40;99.90
33994;DHT22;20673;48.980;8.138;2023-06-14T05:04:38;15.40;99.90
33994;DHT22;20673;48.980;8.138;2023-06-14T05:07:08;15.50;99.90
33994;DHT22;20673;48.980;8.138;2023-06-14T05:09:35;15.50;99.90
33994;DHT22;20673;48.980;8.138;2023-06-14T05:12:02;15.70;99.90
33994;DHT22;20673;48.980;8.138;2023-06-14T05:14:28;15.70;99.90
33994;DHT22;20673;48.980;8.138;2023-06-14T05:16:55;15.80;99.90
33994;DHT22;20673;48.980;8.138;2023-06-14T05:19:21;15.80;99.90
33994;DHT22;20673;48.980;8.138;2023-06-14T05:21:47;15.90;99.90
33994;DHT22;20673;48.980;8.138;2023-06-14T05:24:14;16.00;99.90
33994;DHT22;20673;48.980;8.138;2023-06-14T05:26:40;16.10;99.90
33994;DHT22;20673;48.980;8.138;2023-06-14T05:29:06;16.20;99.90
33994;DHT22;20673;48.980;8.138;2023-06-14T05:31:32;16.20;99.90
33994;DHT22;20673;48.980;8.138;2023-06-14T05:33:58;16.30;99.90
33994;DHT22;20673;48.980;8.138;2023-06-14T05:36:25;16.40;99.90
33994;DHT22;20673;48.980;8.138;2023-06-14T05:38:53;16.50;99.90
33994;DHT22;20673;48.980;8.138;2023-06-14T05:41:26;16.60;99.90
33994;DHT22;20673;48.980;8.138;2023-06-14T05:43:54;16.70;99.90
33994;DHT22;20673;48.980;8.138;2023-06-14T05:46:22;16.80;99.90
33994;DHT22;20673;48.980;8.138;2023-06-14T05:48:54;16.90;99.90
33994;DHT22;20673;48.980;8.138;2023-06-14T05:51:21;17.00;99.90
33994;DHT22;20673;48.980;8.138;2023-06-14T05:53:50;17.10;99.90
33994;DHT22;20673;48.980;8.138;2023-06-14T05:56:17;17.20;99.90
33994;DHT22;20673;48.980;8.138;2023-06-14T05:58:45;17.20;99.90
33994;DHT22;20673;48.980;8.138;2023-06-14T06:01:12;17.40;99.90
33994;DHT22;20673;48.980;8.138;2023-06-14T06:03:39;17.50;99.90
33994;DHT22;20673;48.980;8.138;2023-06-14T06:06:05;17.50;99.90
33994;DHT22;20673;48.980;8.138;2023-06-14T06:08:31;17.60;99.90
33994;DHT22;20673;48.980;8.138;2023-06-14T06:10:58;17.70;99.90
33994;DHT22;20673;48.980;8.138;2023-06-14T06:13:25;17.90;99.90
33994;DHT22;20673;48.980;8.138;2023-06-14T06:15:51;17.90;99.90
33994;DHT22;20673;48.980;8.138;2023-06-14T06:18:17;18.10;99.90
33994;DHT22;20673;48.980;8.138;2023-06-14T06:20:43;18.20;99.90
33994;DHT22;20673;48.980;8.138;2023-06-14T06:23:10;18.30;99.90
33994;DHT22;20673;48.980;8.138;2023-06-14T06:25:36;18.50;99.90
33994;DHT22;20673;48.980;8.138;2023-06-14T06:28:03;18.60;99.90
33994;DHT22;20673;48.980;8.138;2023-06-14T06:30:29;18.70;99.90
33994;DHT22;20673;48.980;8.138;2023-06-14T06:32:55;18.80;99.90
33994;DHT22;20673;48.980;8.138;2023-06-14T06:35:21;18.90;99.90
33994;DHT22;20673;48.980;8.138;2023-06-14T06:37:47;19.00;99.90
33994;DHT22;20673;48.980;8.138;2023-06-14T06:40:13;19.10;99.90
33994;DHT22;20673;48.980;8.138;2023-06-14T06:42:39;19.10;99.90
33994;DHT22;20673;48.980;8.138;2023-06-14T06:45:06;19.20;99.90
33994;DHT22;20673;48.980;8.138;2023-06-14T06:47:32;19.40;99.90
33994;DHT22;20673;48.980;8.138;2023-06-14T06:49:59;19.50;99.90
33994;DHT22;20673;48.980;8.138;2023-06-14T06:52:25;19.60;99.90
33994;DHT22;20673;48.980;8.138;2023-06-14T06:54:51;19.80;99.90
33994;DHT22;20673;48.980;8.138;2023-06-14T06:57:19;19.80;99.90
33994;DHT22;20673;48.980;8.138;2023-06-14T06:59:46;19.90;99.90
33994;DHT22;20673;48.980;8.138;2023-06-14T07:02:12;19.90;99.90
33994;DHT22;20673;48.980;8.138;2023-06-14T07:04:38;20.10;99.90
33994;DHT22;20673;48.980;8.138;2023-06-14T07:07:04;20.10;99.90
33994;DHT22;20673;48.980;8.138;2023-06-14T07:09:30;20.20;99.90
33994;DHT22;20673;48.980;8.138;2023-06-14T07:11:56;20.20;99.90
33994;DHT22;20673;48.980;8.138;2023-06-14T07:14:22;20.30;99.90
33994;DHT22;20673;48.980;8.138;2023-06-14T07:16:48;20.50;99.90
33994;DHT22;20673;48.980;8.138;2023-06-14T07:19:14;20.30;99.90
33994;DHT22;20673;48.980;8.138;2023-06-14T07:21:41;20.40;99.90
33994;DHT22;20673;48.980;8.138;2023-06-14T07:24:07;20.60;99.90
33994;DHT22;20673;48.980;8.138;2023-06-14T07:26:33;20.70;99.90
33994;DHT22;20673;48.980;8.138;2023-06-14T07:29:01;20.80;99.90
33994;DHT22;20673;48.980;8.138;2023-06-14T07:31:27;21.00;99.90
33994;DHT22;20673;48.980;8.138;2023-06-14T07:33:54;20.90;99.90
33994;DHT22;20673;48.980;8.138;2023-06-14T07:36:20;20.90;99.90
33994;DHT22;20673;48.980;8.138;2023-06-14T07:38:46;21.30;99.90
33994;DHT22;20673;48.980;8.138;2023-06-14T07:41:12;21.40;99.90
33994;DHT22;20673;48.980;8.138;2023-06-14T07:43:38;21.40;99.90
33994;DHT22;20673;48.980;8.138;2023-06-14T07:46:04;21.40;99.90
33994;DHT22;20673;48.980;8.138;2023-06-14T07:48:31;21.50;99.90
33994;DHT22;20673;48.980;8.138;2023-06-14T07:50:57;21.70;99.90
33994;DHT22;20673;48.980;8.138;2023-06-14T07:53:23;21.80;99.90
33994;DHT22;20673;48.980;8.138;2023-06-14T07:55:49;21.80;99.90
33994;DHT22;20673;48.980;8.138;2023-06-14T07:58:16;21.90;99.90
33994;DHT22;20673;48.980;8.138;2023-06-14T08:00:42;21.90;99.90
33994;DHT22;20673;48.980;8.138;2023-06-14T08:03:08;21.90;99.90
33994;DHT22;20673;48.980;8.138;2023-06-14T08:05:35;22.00;99.90
33994;DHT22;20673;48.980;8.138;2023-06-14T08:08:01;22.20;99.90
33994;DHT22;20673;48.980;8.138;2023-06-14T08:10:27;22.30;99.90
33994;DHT22;20673;48.980;8.138;2023-06-14T08:12:53;22.30;99.90
33994;DHT22;20673;48.980;8.138;2023-06-14T08:15:19;22.20;99.90
33994;DHT22;20673;48.980;8.138;2023-06-14T08:17:46;22.30;99.90
33994;DHT22;20673;48.980;8.138;2023-06-14T08:20:13;22.20;99.90
33994;DHT22;20673;48.980;8.138;2023-06-14T08:22:39;22.20;99.90
33994;DHT22;20673;48.980;8.138;2023-06-14T08:25:08;22.40;99.90
33994;DHT22;20673;48.980;8.138;2023-06-14T08:27:35;22.70;99.90
33994;DHT22;20673;48.980;8.138;2023-06-14T08:30:02;23.10;99.90
33994;DHT22;20673;48.980;8.138;2023-06-14T08:32:29;23.20;99.90
33994;DHT22;20673;48.980;8.138;2023-06-14T08:34:55;23.30;99.90
33994;DHT22;20673;48.980;8.138;2023-06-14T08:37:21;23.30;99.90
33994;DHT22;20673;48.980;8.138;2023-06-14T08:39:47;23.50;99.90
33994;DHT22;20673;48.980;8.138;2023-06-14T08:42:14;23.60;99.90
33994;DHT22;20673;48.980;8.138;2023-06-14T08:44:43;23.70;99.90
33994;DHT22;20673;48.980;8.138;2023-06-14T08:47:09;23.80;99.90
33994;DHT22;20673;48.980;8.138;2023-06-14T08:49:38;23.90;99.90
33994;DHT22;20673;48.980;8.138;2023-06-14T08:52:08;23.90;99.90
33994;DHT22;20673;48.980;8.138;2023-06-14T08:54:36;23.90;99.90
33994;DHT22;20673;48.980;8.138;2023-06-14T08:57:05;24.10;99.90
33994;DHT22;20673;48.980;8.138;2023-06-14T08:59:33;24.20;99.90
33994;DHT22;20673;48.980;8.138;2023-06-14T09:02:02;24.40;99.90
33994;DHT22;20673;48.980;8.138;2023-06-14T09:04:29;24.80;99.90
33994;DHT22;20673;48.980;8.138;2023-06-14T09:06:56;24.60;99.90
33994;DHT22;20673;48.980;8.138;2023-06-14T09:09:22;24.80;99.90
33994;DHT22;20673;48.980;8.138;2023-06-14T09:11:52;24.90;99.90
33994;DHT22;20673;48.980;8.138;2023-06-14T09:14:18;25.30;99.90
33994;DHT22;20673;48.980;8.138;2023-06-14T09:16:45;25.30;99.90
33994;DHT22;20673;48.980;8.138;2023-06-14T09:19:24;25.50;99.90
33994;DHT22;20673;48.980;8.138;2023-06-14T09:21:52;25.40;99.90
33994;DHT22;20673;48.980;8.138;2023-06-14T09:24:19;25.60;99.90
33994;DHT22;20673;48.980;8.138;2023-06-14T09:26:50;25.80;99.90
33994;DHT22;20673;48.980;8.138;2023-06-14T09:29:17;26.10;99.90
33994;DHT22;20673;48.980;8.138;2023-06-14T09:31:46;26.00;99.90
33994;DHT22;20673;48.980;8.138;2023-06-14T09:34:12;26.20;98.20
33994;DHT22;20673;48.980;8.138;2023-06-14T09:36:39;26.30;98.50
33994;DHT22;20673;48.980;8.138;2023-06-14T09:39:08;26.50;97.60
33994;DHT22;20673;48.980;8.138;2023-06-14T09:41:35;26.70;97.10
33994;DHT22;20673;48.980;8.138;2023-06-14T09:44:05;26.60;97.10
33994;DHT22;20673;48.980;8.138;2023-06-14T09:46:33;26.80;95.40
33994;DHT22;20673;48.980;8.138;2023-06-14T09:49:01;26.90;96.40
33994;DHT22;20673;48.980;8.138;2023-06-14T09:51:29;27.00;96.30
33994;DHT22;20673;48.980;8.138;2023-06-14T09:54:04;27.00;93.70
33994;DHT22;20673;48.980;8.138;2023-06-14T09:56:32;27.20;93.40
33994;DHT22;20673;48.980;8.138;2023-06-14T09:59:12;27.10;93.50
33994;DHT22;20673;48.980;8.138;2023-06-14T10:01:42;27.30;89.60
33994;DHT22;20673;48.980;8.138;2023-06-14T10:04:10;27.60;92.60
33994;DHT22;20673;48.980;8.138;2023-06-14T10:06:40;27.50;91.40
33994;DHT22;20673;48.980;8.138;2023-06-14T10:09:09;27.60;87.40
33994;DHT22;20673;48.980;8.138;2023-06-14T10:11:36;27.50;91.30
33994;DHT22;20673;48.980;8.138;2023-06-14T10:14:05;27.50;90.20
33994;DHT22;20673;48.980;8.138;2023-06-14T10:22:06;28.00;85.40
33994;DHT22;20673;48.980;8.138;2023-06-14T10:24:43;28.20;81.20
33994;DHT22;20673;48.980;8.138;2023-06-14T10:27:15;28.40;80.10
33994;DHT22;20673;48.980;8.138;2023-06-14T10:32:25;28.80;72.60
33994;DHT22;20673;48.980;8.138;2023-06-14T10:34:55;28.80;74.10
33994;DHT22;20673;48.980;8.138;2023-06-14T10:37:23;29.00;70.00
33994;DHT22;20673;48.980;8.138;2023-06-14T10:39:52;29.00;70.00
33994;DHT22;20673;48.980;8.138;2023-06-14T10:42:21;28.80;68.50
33994;DHT22;20673;48.980;8.138;2023-06-14T10:44:54;28.50;65.70
33994;DHT22;20673;48.980;8.138;2023-06-14T10:47:33;28.70;64.40
33994;DHT22;20673;48.980;8.138;2023-06-14T10:50:10;28.80;64.70
33994;DHT22;20673;48.980;8.138;2023-06-14T10:52:40;28.70;58.70
33994;DHT22;20673;48.980;8.138;2023-06-14T10:55:16;27.90;61.80
33994;DHT22;20673;48.980;8.138;2023-06-14T10:57:46;26.80;62.60
33994;DHT22;20673;48.980;8.138;2023-06-14T11:00:15;26.40;65.60
33994;DHT22;20673;48.980;8.138;2023-06-14T11:05:56;28.30;66.20
33994;DHT22;20673;48.980;8.138;2023-06-14T11:08:39;29.00;61.10
33994;DHT22;20673;48.980;8.138;2023-06-14T11:11:25;29.30;66.80
33994;DHT22;20673;48.980;8.138;2023-06-14T11:13:55;29.60;54.50
33994;DHT22;20673;48.980;8.138;2023-06-14T11:16:25;30.20;59.80
33994;DHT22;20673;48.980;8.138;2023-06-14T11:18:52;30.00;52.00
33994;DHT22;20673;48.980;8.138;2023-06-14T11:21:18;29.80;53.60
33994;DHT22;20673;48.980;8.138;2023-06-14T11:23:51;29.40;52.20
33994;DHT22;20673;48.980;8.138;2023-06-14T11:26:28;30.00;48.80
33994;DHT22;20673;48.980;8.138;2023-06-14T11:28:56;29.70;45.20
33994;DHT22;20673;48.980;8.138;2023-06-14T11:31:26;30.10;46.40
33994;DHT22;20673;48.980;8.138;2023-06-14T11:33:55;30.50;47.00
33994;DHT22;20673;48.980;8.138;2023-06-14T11:36:29;30.00;45.40
33994;DHT22;20673;48.980;8.138;2023-06-14T11:39:02;29.70;49.90
33994;DHT22;20673;48.980;8.138;2023-06-14T11:41:37;29.40;53.60
33994;DHT22;20673;48.980;8.138;2023-06-14T11:44:05;28.50;52.10
33994;DHT22;20673;48.980;8.138;2023-06-14T11:46:32;28.20;56.00
33994;DHT22;20673;48.980;8.138;2023-06-14T11:48:58;28.50;55.10
33994;DHT22;20673;48.980;8.138;2023-06-14T11:51:24;29.00;54.00
33994;DHT22;20673;48.980;8.138;2023-06-14T11:53:51;29.20;52.50
33994;DHT22;20673;48.980;8.138;2023-06-14T11:56:17;29.70;55.90
33994;DHT22;20673;48.980;8.138;2023-06-14T11:58:44;30.00;54.40
33994;DHT22;20673;48.980;8.138;2023-06-14T12:01:18;30.10;51.60
33994;DHT22;20673;48.980;8.138;2023-06-14T12:03:50;30.30;50.20
33994;DHT22;20673;48.980;8.138;2023-06-14T12:06:29;30.80;50.80
33994;DHT22;20673;48.980;8.138;2023-06-14T12:09:05;30.90;49.80
33994;DHT22;20673;48.980;8.138;2023-06-14T12:11:35;31.10;47.40
33994;DHT22;20673;48.980;8.138;2023-06-14T12:14:03;29.90;45.70
33994;DHT22;20673;48.980;8.138;2023-06-14T12:16:32;28.70;48.20
33994;DHT22;20673;48.980;8.138;2023-06-14T12:19:13;27.80;47.00
33994;DHT22;20673;48.980;8.138;2023-06-14T12:21:41;27.40;48.50
33994;DHT22;20673;48.980;8.138;2023-06-14T12:24:08;28.60;50.90
33994;DHT22;20673;48.980;8.138;2023-06-14T12:26:40;29.50;48.40
33994;DHT22;20673;48.980;8.138;2023-06-14T12:29:07;29.80;42.60
33994;DHT22;20673;48.980;8.138;2023-06-14T12:31:34;29.90;47.80
33994;DHT22;20673;48.980;8.138;2023-06-14T12:34:00;30.10;47.30
33994;DHT22;20673;48.980;8.138;2023-06-14T12:36:26;30.30;42.80
33994;DHT22;20673;48.980;8.138;2023-06-14T12:38:52;30.30;42.40
33994;DHT22;20673;48.980;8.138;2023-06-14T12:41:20;30.60;43.20
33994;DHT22;20673;48.980;8.138;2023-06-14T12:43:48;30.40;41.00
33994;DHT22;20673;48.980;8.138;2023-06-14T12:46:14;30.40;42.20
33994;DHT22;20673;48.980;8.138;2023-06-14T12:48:40;30.50;42.30
33994;DHT22;20673;48.980;8.138;2023-06-14T12:51:06;30.70;41.40
33994;DHT22;20673;48.980;8.138;2023-06-14T12:53:32;30.80;38.30
33994;DHT22;20673;48.980;8.138;2023-06-14T12:55:58;31.10;43.80
33994;DHT22;20673;48.980;8.138;2023-06-14T12:58:25;31.40;37.20
33994;DHT22;20673;48.980;8.138;2023-06-14T13:00:51;31.20;36.70
33994;DHT22;20673;48.980;8.138;2023-06-14T13:03:17;31.20;39.90
33994;DHT22;20673;48.980;8.138;2023-06-14T13:05:44;30.90;38.40
33994;DHT22;20673;48.980;8.138;2023-06-14T13:08:10;30.60;38.20
33994;DHT22;20673;48.980;8.138;2023-06-14T13:10:36;30.80;40.60
33994;DHT22;20673;48.980;8.138;2023-06-14T13:13:02;30.90;41.50
33994;DHT22;20673;48.980;8.138;2023-06-14T13:15:29;31.20;40.30
33994;DHT22;20673;48.980;8.138;2023-06-14T13:17:55;31.10;41.10
33994;DHT22;20673;48.980;8.138;2023-06-14T13:20:21;30.80;37.20
33994;DHT22;20673;48.980;8.138;2023-06-14T13:22:48;30.90;36.90
33994;DHT22;20673;48.980;8.138;2023-06-14T13:25:15;30.90;37.60
33994;DHT22;20673;48.980;8.138;2023-06-14T13:27:41;31.20;37.50
33994;DHT22;20673;48.980;8.138;2023-06-14T13:30:07;31.50;37.50
33994;DHT22;20673;48.980;8.138;2023-06-14T13:32:35;31.40;35.30
33994;DHT22;20673;48.980;8.138;2023-06-14T13:35:01;31.20;34.30
33994;DHT22;20673;48.980;8.138;2023-06-14T13:37:27;30.80;36.30
33994;DHT22;20673;48.980;8.138;2023-06-14T13:39:53;31.00;33.80
33994;DHT22;20673;48.980;8.138;2023-06-14T13:42:19;31.20;35.70
33994;DHT22;20673;48.980;8.138;2023-06-14T13:44:46;30.80;34.90
33994;DHT22;20673;48.980;8.138;2023-06-14T13:47:12;31.10;37.50
33994;DHT22;20673;48.980;8.138;2023-06-14T13:49:38;31.50;36.60
33994;DHT22;20673;48.980;8.138;2023-06-14T13:52:05;31.60;36.50
33994;DHT22;20673;48.980;8.138;2023-06-14T13:54:32;31.60;33.70
33994;DHT22;20673;48.980;8.138;2023-06-14T13:56:58;31.80;35.10
33994;DHT22;20673;48.980;8.138;2023-06-14T13:59:24;31.60;30.40
33994;DHT22;20673;48.980;8.138;2023-06-14T14:01:50;31.20;32.30
33994;DHT22;20673;48.980;8.138;2023-06-14T14:04:17;31.30;35.50
33994;DHT22;20673;48.980;8.138;2023-06-14T14:06:43;31.40;34.30
33994;DHT22;20673;48.980;8.138;2023-06-14T14:09:09;31.90;36.10
33994;DHT22;20673;48.980;8.138;2023-06-14T14:11:35;31.80;34.20
33994;DHT22;20673;48.980;8.138;2023-06-14T14:14:01;31.60;34.10
33994;DHT22;20673;48.980;8.138;2023-06-14T14:16:28;31.70;33.30
33994;DHT22;20673;48.980;8.138;2023-06-14T14:18:55;31.60;31.00
33994;DHT22;20673;48.980;8.138;2023-06-14T14:21:21;31.60;33.10
33994;DHT22;20673;48.980;8.138;2023-06-14T14:23:47;31.50;33.50
33994;DHT22;20673;48.980;8.138;2023-06-14T14:26:15;31.20;30.40
33994;DHT22;20673;48.980;8.138;2023-06-14T14:28:41;30.10;30.10
33994;DHT22;20673;48.980;8.138;2023-06-14T14:31:07;29.80;31.10
33994;DHT22;20673;48.980;8.138;2023-06-14T14:33:33;28.80;33.00
33994;DHT22;20673;48.980;8.138;2023-06-14T14:36:00;28.50;34.20
33994;DHT22;20673;48.980;8.138;2023-06-14T14:38:28;28.90;36.90
33994;DHT22;20673;48.980;8.138;2023-06-14T14:40:54;29.50;35.20
33994;DHT22;20673;48.980;8.138;2023-06-14T14:43:20;30.00;35.40
33994;DHT22;20673;48.980;8.138;2023-06-14T14:45:46;30.40;38.10
33994;DHT22;20673;48.980;8.138;2023-06-14T14:48:12;31.30;32.60
33994;DHT22;20673;48.980;8.138;2023-06-14T14:50:39;31.20;33.50
33994;DHT22;20673;48.980;8.138;2023-06-14T14:53:06;30.40;32.70
33994;DHT22;20673;48.980;8.138;2023-06-14T14:55:32;30.70;33.60
33994;DHT22;20673;48.980;8.138;2023-06-14T14:58:00;30.60;34.90
33994;DHT22;20673;48.980;8.138;2023-06-14T15:00:26;30.40;33.40
33994;DHT22;20673;48.980;8.138;2023-06-14T15:02:52;30.80;34.60
33994;DHT22;20673;48.980;8.138;2023-06-14T15:05:19;31.00;33.20
33994;DHT22;20673;48.980;8.138;2023-06-14T15:07:45;31.00;34.90
33994;DHT22;20673;48.980;8.138;2023-06-14T15:10:11;31.00;34.50
33994;DHT22;20673;48.980;8.138;2023-06-14T15:12:37;31.00;32.00
33994;DHT22;20673;48.980;8.138;2023-06-14T15:15:04;31.00;33.80
33994;DHT22;20673;48.980;8.138;2023-06-14T15:17:30;31.40;32.20
33994;DHT22;20673;48.980;8.138;2023-06-14T15:19:57;31.50;33.10
33994;DHT22;20673;48.980;8.138;2023-06-14T15:22:23;31.40;33.30
33994;DHT22;20673;48.980;8.138;2023-06-14T15:24:49;31.90;30.70
33994;DHT22;20673;48.980;8.138;2023-06-14T15:27:15;31.90;31.10
33994;DHT22;20673;48.980;8.138;2023-06-14T15:29:41;31.70;32.20
33994;DHT22;20673;48.980;8.138;2023-06-14T15:32:08;31.80;31.80
33994;DHT22;20673;48.980;8.138;2023-06-14T15:34:35;31.50;31.00
33994;DHT22;20673;48.980;8.138;2023-06-14T15:37:02;31.20;30.20
33994;DHT22;20673;48.980;8.138;2023-06-14T15:39:29;30.50;31.10
33994;DHT22;20673;48.980;8.138;2023-06-14T15:41:59;30.90;31.70
33994;DHT22;20673;48.980;8.138;2023-06-14T15:44:26;30.60;33.20